16:36
Airports
History
Links
Donate
Help keep this website running!
PayPal
Bitcoin
Information on this page is community maintained and may be outdated or inaccurate and is intended for reference only or PC simulator navigating.
Always use approved charts for navigating.
UUBP
BRYANSK
BRYANSK (UUBP)
Temenichi, Bryanskaya oblast, Russian Federation (241523)
(C)
Lat/Lng:53° 12' 51.09" N / 34° 10' 35.21" E
53.214193 / 34.176447
Elevation:663'ft 202mMSL
ID / ICAO:UUBP
Runways:1
Longest:(17-35) 2,397.9m 7,867ft Concrete
Controlled:Yes
Distance To
Airport ID:
Airport Radio Frequencies
Tower: 129.8
Approach: 119.2
Nearby VORs <50NM
Nearby NDBs
METARUpdated 05-18-17 11:30 GMT
Altimeter: 30.06
Visibility: 6.2 statute miles
Wind: 5.8 knots (090°)
Temp: 11°c 52°f
Humidity: 76.3%

METAR: UUBP 181130Z 09003MPS 9999 SCT033 11/07 Q1018 R16/CLRD70 NOSIG RMK QFE746/0994

(Powered by phpweather)
Runway 17 / 35
Dimensions:2397.9 x 42.1m 7867' x 138'ft
Surface:Concrete
Edge Lights:Low intensity
Runway 17 [A]Runway 35 [B]
Heading:171°TH 351°TH
Lat:
Lng:
53° 13' 29.45"N
34° 10' 25.59"E
53° 12' 12.74"N
34° 10' 44.83"E
ALS:MALSMALS
User Notes and Comments
Google Map
Nearby Airports
(C) KURSK 134.8 NM
UUOK SE 138°
(C) Gomel 140.1 NM
UMGG WSW 250°
(C) Mogilev 175.0 NM
UMOO WNW 287°
(U) VITEBSK 203.4 NM
UMII (WX) NW 310°
(C) BELGOROD 205.1 NM
UUOB SSE 149°
(C) Bobrujsk 206.1 NM
UMNB W 267°
(C) VNUKOVO 206.4 NM
UUWW (WX) NE 37°
VFR Chart
Flight Planning at SkyVector.com